Latest Weather Observations for Trangie

IDN60801

Issued at 2:02 pm EDT Thursday 2 April 2015 (issued every 30 minutes, with the page automatically refreshed every 10 minutes)

About weather observations | Map of weather stations | Latest weather observations for NSW | Other Formats
Station Details ID: 051049 Name: TRANGIE RESEARCH STATION AWS Lat: -31.99 Lon: 147.95 Height: 215.0 m
Data from the previous 72 hours. | See also: Recent months at Trangie
Date/Time
EDT
Temp
°C
App
Temp
°C
Dew
Point
Rel
Hum
%
Delta-T
°C
Wind Press
QNH
hPa
Press
MSL
hPa
Rain
since 9 am
mm
Dir
 
Spd
km/h
Gust
km/h
Spd
kts
Gust
kts
02/02:00pm 29.4 27.0 12.8 36 9.9 N 17 24 9 13 1018.0 1017.6 0.0
02/01:30pm 28.2 25.8 12.5 37 9.2 NNW 17 28 9 15 1018.7 1018.2 0.0
02/01:00pm 27.9 25.0 12.3 38 9.1 NNW 19 28 10 15 1019.2 1018.7 0.0
02/12:30pm 27.4 24.4 12.6 40 8.7 NNW 20 32 11 17 1019.5 1019.0 0.0
02/12:00pm 27.7 25.1 13.3 41 8.6 N 19 28 10 15 1019.8 1019.3 0.0
02/11:30am 26.4 23.6 13.2 44 7.8 N 20 30 11 16 1020.2 1019.7 0.0
02/11:00am 26.6 23.8 13.3 43 7.9 N 20 35 11 19 1020.3 1019.8 0.0
02/10:30am 24.6 21.9 13.5 50 6.5 N 20 30 11 16 1020.5 1020.0 0.0
02/10:00am 24.3 21.6 13.5 51 6.3 N 20 28 11 15 1020.6 1020.1 0.0
02/09:30am 22.3 19.0 12.8 55 5.5 N 22 32 12 17 1020.3 1019.8 0.0
02/09:00am 22.0 17.8 12.5 54 5.4 N 26 35 14 19 1020.3 1019.8 0.0
02/08:30am 21.2 18.9 13.1 60 4.7 N 17 24 9 13 1020.0 1019.5 0.0
02/08:00am 20.3 18.8 13.0 63 4.2 N 13 22 7 12 1019.5 1019.0 0.0
02/07:30am 19.5 17.8 12.5 64 4.0 N 13 19 7 10 1019.4 1018.9 0.0
02/07:00am 19.5 18.2 12.5 64 4.0 N 11 17 6 9 1019.2 1018.7 0.0
02/06:30am 20.0 18.3 12.5 62 4.3 N 13 19 7 10 1019.0 1018.5 0.0
02/06:00am 20.1 18.4 12.6 62 4.3 N 13 17 7 9 1018.7 1018.2 0.0
02/05:30am 20.2 19.0 12.7 62 4.3 N 11 17 6 9 1018.4 1017.9 0.0
02/05:00am 20.2 19.4 12.9 63 4.2 NNE 9 13 5 7 1018.2 1017.7 0.0
02/04:30am 20.5 19.6 12.7 61 4.5 NNE 9 15 5 8 1018.2 1017.7 0.0
02/04:00am 21.0 19.8 12.7 59 4.7 NNE 11 15 6 8 1018.3 1017.8 0.0
02/03:30am 21.1 19.9 12.8 59 4.8 NNE 11 15 6 8 1018.3 1017.8 0.0
02/03:00am 20.7 19.7 12.4 59 4.7 NNE 9 13 5 7 1018.5 1018.0 0.0
02/02:30am 20.6 19.8 11.8 57 4.9 NNE 7 11 4 6 1018.8 1018.3 0.0
02/02:00am 21.0 19.7 11.3 54 5.4 NNE 9 13 5 7 1019.1 1018.6 0.0
02/01:30am 20.9 20.0 11.3 54 5.4 NNE 7 11 4 6 1019.3 1018.8 0.0
02/01:00am 20.7 19.6 10.8 53 5.5 NE 7 9 4 5 1019.3 1018.8 0.0
02/12:30am 20.5 19.4 10.6 53 5.4 NE 7 9 4 5 1019.4 1018.9 0.0
02/12:00am 20.9 19.9 11.0 53 5.5 NE 7 9 4 5 1019.6 1019.1 0.0
 
Date/Time
EDT
Temp
°C
App
Temp
°C
Dew
Point
Rel
Hum
%
Delta-T
°C
Wind Press
QNH
hPa
Press
MSL
hPa
Rain
since 9 am
mm
Dir
 
Spd
km/h
Gust
km/h
Spd
kts
Gust
kts
01/11:30pm 21.1 20.1 10.9 52 5.7 NE 7 9 4 5 1019.6 1019.1 0.0
01/11:00pm 20.9 20.9 11.3 54 5.3 NNE 2 7 1 4 1019.6 1019.1 0.0
01/10:30pm 21.7 20.7 11.1 51 5.9 NE 7 9 4 5 1019.6 1019.1 0.0
01/10:00pm 21.7 20.6 10.5 49 6.2 ENE 7 7 4 4 1019.5 1019.0 0.0
01/09:30pm 22.1 21.1 10.9 49 6.2 NE 7 9 4 5 1019.3 1018.8 0.0
01/09:00pm 22.7 21.9 11.7 49 6.2 NE 7 9 4 5 1019.1 1018.6 0.0
01/08:30pm 22.7 21.9 11.1 48 6.5 N 6 7 3 4 1019.0 1018.5 0.0
01/08:00pm 23.6 23.1 10.6 44 7.2 N 4 6 2 3 1018.7 1018.2 0.0
01/07:30pm 25.6 24.6 11.0 40 8.3 NNE 7 9 4 5 1018.5 1018.0 0.0
01/07:00pm 26.4 25.4 10.9 38 8.8 NNE 7 13 4 7 1018.3 1017.8 0.0
01/06:30pm 27.3 25.9 10.9 36 9.4 NNE 9 15 5 8 1018.0 1017.6 0.0
01/06:00pm 28.4 26.1 10.6 33 10.2 N 13 20 7 11 1018.0 1017.6 0.0
01/05:30pm 28.8 26.6 10.9 33 10.3 NNE 13 24 7 13 1017.9 1017.5 0.0
01/05:00pm 28.9 26.9 11.5 34 10.1 N 13 19 7 10 1017.9 1017.5 0.0
01/04:30pm 28.8 26.8 11.4 34 10.1 NNE 13 20 7 11 1018.2 1017.7 0.0
01/04:00pm 28.9 26.5 11.5 34 10.1 N 15 26 8 14 1018.4 1017.9 0.0
01/03:30pm 28.0 25.1 11.1 35 9.7 NNE 17 22 9 12 1018.7 1018.2 0.0
01/03:00pm 28.9 26.4 12.3 36 9.8 NNE 17 28 9 15 1018.9 1018.4 0.0
01/02:30pm 28.2 25.1 11.7 36 9.6 N 19 26 10 14 1019.4 1018.9 0.0
01/02:00pm 28.6 25.9 11.6 34 9.9 NNW 17 30 9 16 1019.7 1019.2 0.0
01/01:30pm 28.4 26.7 12.3 37 9.5 N 13 20 7 11 1020.1 1019.6 0.0
01/01:00pm 27.8 25.8 12.6 39 8.9 N 15 24 8 13 1020.7 1020.2 0.0
01/12:30pm 27.5 25.7 13.4 41 8.4 NNE 15 20 8 11 1021.5 1021.0 0.0
01/12:00pm 26.1 24.5 13.9 47 7.3 NNE 15 22 8 12 1021.8 1021.3 0.0
01/11:30am 25.8 25.0 14.0 48 7.0 NNE 11 19 6 10 1022.4 1022.0 0.0
01/11:00am 24.6 22.3 14.1 52 6.2 NNE 19 28 10 15 1022.8 1022.4 0.0
01/10:30am 23.7 21.4 14.1 55 5.7 NNE 19 28 10 15 1023.3 1022.4 0.0
01/10:00am 22.9 21.1 14.5 59 5.0 NE 17 24 9 13 1023.5 1022.6 0.0
01/09:30am 21.6 21.0 14.5 64 4.2 ENE 11 17 6 9 1023.8 1022.9 0.0
01/09:00am 20.0 19.0 14.6 71 3.2 E 13 20 7 11 1023.6 1022.7 0.0
01/08:30am 18.5 17.5 14.6 78 2.3 E 13 19 7 10 1023.2 1022.3 0.0
01/08:00am 17.1 16.7 14.2 83 1.7 E 9 13 5 7 1022.7 1021.8 0.0
01/07:30am 15.9 15.4 13.7 87 1.3 E 9 13 5 7 1022.5 1021.6 0.0
01/07:00am 16.1 15.2 13.6 85 1.4 E 11 15 6 8 1022.2 1021.3 0.0
01/06:30am 16.5 15.6 13.8 84 1.5 E 11 17 6 9 1022.0 1021.1 0.0
01/06:00am 16.8 16.0 13.9 83 1.7 E 11 17 6 9 1021.8 1020.9 0.0
01/05:30am 16.9 16.1 14.0 83 1.7 E 11 17 6 9 1021.6 1020.7 0.0
01/05:00am 16.8 16.3 13.9 83 1.7 E 9 15 5 8 1021.6 1020.7 0.0
01/04:30am 16.3 16.0 13.4 83 1.6 ESE 7 11 4 6 1021.8 1020.9 0.0
01/04:00am 16.4 15.7 13.3 82 1.7 ESE 9 13 5 7 1021.9 1021.0 0.0
01/03:30am 16.9 16.6 13.4 80 2.0 ESE 7 11 4 6 1022.0 1021.1 0.0
01/03:00am 17.8 17.3 13.9 78 2.2 ESE 9 15 5 8 1022.5 1021.6 0.0
01/02:30am 17.7 17.5 13.6 77 2.3 ESE 7 13 4 7 1022.9 1022.1 0.0
01/02:00am 18.9 18.5 14.0 73 2.8 E 9 13 5 7 1023.2 1022.3 0.0
01/01:30am 19.4 18.2 14.0 71 3.1 E 13 20 7 11 1023.3 1022.4 0.0
01/01:00am 19.7 18.5 13.9 69 3.4 E 13 20 7 11 1023.2 1022.3 0.0
01/12:30am 20.1 18.8 13.8 67 3.7 E 13 20 7 11 1023.5 1022.6 0.0
01/12:00am 20.5 19.5 13.5 64 4.0 E 11 20 6 11 1023.6 1022.7 0.0
 
Date/Time
EDT
Temp
°C
App
Temp
°C
Dew
Point
Rel
Hum
%
Delta-T
°C
Wind Press
QNH
hPa
Press
MSL
hPa
Rain
since 9 am
mm
Dir
 
Spd
km/h
Gust
km/h
Spd
kts
Gust
kts
31/11:30pm 21.1 19.6 13.0 60 4.7 E 13 19 7 10 1023.5 1022.6 0.0
31/11:00pm 21.8 19.1 12.9 57 5.1 E 19 30 10 16 1023.4 1022.5 0.0
31/10:30pm 21.9 20.3 11.6 52 5.8 E 11 17 6 9 1022.9 1022.1 0.0
31/10:00pm 20.1 18.6 10.5 54 5.2 ESE 9 11 5 6 1022.5 1021.6 0.0
31/09:30pm 19.7 18.4 10.1 54 5.2 E 7 9 4 5 1022.2 1021.3 0.0
31/09:00pm 20.0 18.9 10.1 53 5.4 ENE 6 7 3 4 1021.9 1021.0 0.0
31/08:30pm 20.6 19.3 9.2 48 6.1 E 6 9 3 5 1021.6 1020.7 0.0
31/08:00pm 21.5 19.9 8.7 44 6.8 NE 7 9 4 5 1021.3 1020.4 0.0
31/07:30pm 22.9 21.3 8.6 40 7.7 NE 7 9 4 5 1020.9 1020.0 0.0
31/07:00pm 24.2 22.5 8.2 36 8.6 N 7 9 4 5 1020.6 1019.7 0.0
31/06:30pm 26.0 25.1 7.6 31 9.9 N 2 6 1 3 1020.5 1019.6 0.0
31/06:00pm 25.6 24.1 8.6 34 9.2 N 6 7 3 4 1020.4 1019.5 0.0
31/05:30pm 25.9 24.3 8.0 32 9.7 N 6 9 3 5 1020.5 1019.6 0.0
31/05:00pm 26.0 23.8 8.0 32 9.7 NNE 9 13 5 7 1020.6 1019.7 0.0
31/04:30pm 26.1 24.0 9.9 36 9.1 N 11 15 6 8 1020.7 1019.8 0.0
31/04:00pm 25.7 23.7 11.5 41 8.1 NNE 13 20 7 11 1021.0 1020.1 0.0
31/03:30pm 25.6 23.9 12.4 43 7.7 NNE 13 19 7 10 1021.2 1020.3 0.0
31/03:00pm 26.1 24.8 12.5 42 7.9 NE 11 19 6 10 1021.3 1020.4 0.0
31/02:30pm 27.0 24.6 10.2 35 9.5 NE 13 20 7 11 1021.5 1020.6 0.0
31/02:00pm 27.6 25.8 9.4 32 10.1 NE 9 13 5 7 1021.9 1021.0 0.0
31/01:30pm 28.1 27.5 12.4 37 9.2 ENE 7 11 4 6 1022.4 1021.5 0.0
31/01:00pm 26.7 25.3 13.4 43 7.9 ESE 13 19 7 10 1022.9 1022.1 0.0
31/12:30pm 26.1 24.4 13.6 46 7.4 E 15 30 8 16 1023.6 1022.7 0.0
31/12:00pm 25.7 24.3 13.5 46 7.2 ENE 13 22 7 12 1024.1 1023.2 0.0
31/11:30am 24.8 23.8 14.6 53 6.1 E 13 19 7 10 1024.4 1023.5 0.0
31/11:00am 24.8 25.2 15.4 56 5.7 NE 7 19 4 10 1024.6 1023.7 0.0
31/10:30am 23.7 23.8 15.5 60 5.0 NE 9 17 5 9 1024.6 1023.7 0.0
31/10:00am 22.4 22.3 15.0 63 4.4 E 9 11 5 6 1024.7 1023.8 0.0
31/09:30am 22.0 21.9 14.9 64 4.2 E 9 15 5 8 1024.5 1023.6 0.0
31/09:00am 20.2 19.5 14.3 69 3.4 ENE 11 15 6 8 1024.3 1023.4 0.0
31/08:30am 18.5 17.9 13.6 73 2.8 ESE 9 13 5 7 1023.9 1023.0 0.0
31/08:00am 15.7 14.4 11.3 75 2.4 E 9 13 5 7 1023.6 1022.7 0.0
31/07:30am 13.4 11.7 8.3 71 2.6 SE 7 9 4 5 1023.2 1022.3 0.0
31/07:00am 14.1 12.6 9.3 73 2.5 E 7 11 4 6 1022.8 1021.9 0.0
31/06:30am 13.3 11.9 8.8 74 2.3 ESE 6 7 3 4 1022.5 1021.6 0.0
31/06:00am 13.6 12.0 8.0 69 2.8 SE 6 9 3 5 1022.4 1021.5 0.0
31/05:30am 13.3 12.3 7.3 67 3.0 SSE 2 7 1 4 1022.1 1021.2 0.0
31/05:00am 13.4 12.3 5.1 57 3.9 CALM 0 0 0 0 1021.9 1021.0 0.0
31/04:30am 15.1 14.7 8.1 63 3.6 CALM 0 7 0 4 1021.8 1020.9 0.0
31/04:00am 15.2 14.7 7.7 61 3.8 CALM 0 0 0 0 1022.2 1021.3 0.0
31/03:30am 14.9 12.8 6.5 57 4.1 SE 7 11 4 6 1022.3 1021.4 0.0
31/03:00am 15.7 14.9 6.7 55 4.4 CALM 0 0 0 0 1022.6 1021.7 0.0
31/02:30am 15.6 13.6 6.1 53 4.6 SSE 6 9 3 5 1022.8 1021.9 0.0
31/02:00am 15.8 13.7 5.7 51 4.9 SSE 6 9 3 5 1023.3 1022.4 0.0
31/01:30am 15.9 13.7 5.2 49 5.1 S 6 7 3 4 1023.4 1022.5 0.0
31/01:00am 16.1 13.9 5.1 48 5.3 SSE 6 7 3 4 1023.3 1022.4 0.0
31/12:30am 16.7 15.6 5.0 46 5.6 CALM 0 0 0 0 1023.5 1022.6 0.0
31/12:00am 17.6 15.4 5.2 44 6.0 SE 6 7 3 4 1023.7 1022.8 0.0
 
Date/Time
EDT
Temp
°C
App
Temp
°C
Dew
Point
Rel
Hum
%
Delta-T
°C
Wind Press
QNH
hPa
Press
MSL
hPa
Rain
since 9 am
mm
Dir
 
Spd
km/h
Gust
km/h
Spd
kts
Gust
kts
30/11:30pm 18.3 15.8 4.5 40 6.7 SSE 7 9 4 5 1023.6 1022.7 0.0
30/11:00pm 19.2 16.3 4.9 39 7.0 SSE 9 13 5 7 1023.6 1022.7 0.0
30/10:30pm 20.8 17.5 4.4 34 8.0 SE 11 17 6 9 1023.5 1022.6 0.0
30/10:00pm 21.6 17.9 4.7 33 8.3 SSE 13 20 7 11 1023.3 1022.4 0.0
30/09:30pm 22.5 18.4 4.5 31 8.9 SSE 15 24 8 13 1022.9 1022.1 0.0
30/09:00pm 23.2 18.7 4.2 29 9.4 SSE 17 24 9 13 1022.7 1021.8 0.0
30/08:30pm 23.9 20.6 4.3 28 9.8 SSE 11 17 6 9 1022.3 1021.4 0.0
30/08:00pm 25.0 21.5 3.6 25 10.6 S 11 17 6 9 1021.8 1020.9 0.0
30/07:30pm 26.4 22.9 3.6 23 11.4 SSW 11 15 6 8 1021.3 1020.4 0.0
30/07:00pm 27.4 23.3 2.5 20 12.3 SSW 13 20 7 11 1021.0 1020.1 0.0
30/06:30pm 27.8 23.7 2.1 19 12.7 SW 13 19 7 10 1020.9 1020.0 0.0
30/06:00pm 28.3 23.4 1.7 18 13.0 SW 17 28 9 15 1020.7 1019.8 0.0
30/05:30pm 28.7 23.9 2.8 19 13.0 SW 17 26 9 14 1020.4 1019.5 0.0
30/05:00pm 28.2 24.1 2.4 19 12.8 S 13 24 7 13 1020.2 1019.3 0.0
30/04:30pm 28.5 24.5 2.7 19 12.9 S 13 20 7 11 1020.1 1019.2 0.0
30/04:00pm 28.2 23.1 3.1 20 12.6 S 19 32 10 17 1020.1 1019.2 0.0
30/03:30pm 28.8 25.2 2.9 19 13.0 SSW 11 24 6 13 1020.2 1019.3 0.0
30/03:00pm 28.5 23.6 1.9 18 13.1 SW 17 28 9 15 1020.3 1019.4 0.0
30/02:30pm 29.5 25.1 2.7 18 13.5 SW 15 22 8 12 1020.6 1019.7 0.0

Other Formats:

Comma delimited format used in spreadsheet applications
http://www.bom.gov.au/fwo/IDN60801/IDN60801.95710.axf

JavaScript Object Notation format (JSON) in row-major order
http://www.bom.gov.au/fwo/IDN60801/IDN60801.95710.json